Tiempo atmosférico en la estación meteorológica de Cenicero, La Rioja (429 m.)



Fecha
DESCASC
Temp. máxima en grados centígrados (hora)
DESCASC
Temp. mínima en grados centígrados (hora)
DESCASC
Temp. media en grados centígrados
DESCASC
Racha de viento máxima en m/sg (hora)
DESCASC
Velocidad máxima media en intervalos de 10 minutos(hora)
DESCASC
Precipitaciones diarias en mm
DESCASC
Precipitaciones de 00:00 a 06:00 en mm
DESCASC
Precipitaciones de 06:00 a 12:00 en mm
DESCASC
Precipitaciones de 12:00 a 18:00 en mm
DESCASC
Precipitaciones de 18:00 a 24:00 en mm
DESCASC
07-01-2021 4.2 (17:00) -4.3 (-00:0) -0.1 4.44 (09:00) 2.5 (12:50) 0 0 0 0 0
21-01-2021 13.5 (19:50) 5.6 (00:00) 9.5 13.33 (19:20) 6.11 (20:40) 0 0 0 0 0
20-01-2021 13.3 (15:10) 2.9 (00:00) 8.1 9.44 (10:20) 4.44 (10:40) 0 0 0 0 0
19-01-2021 3.8 (15:10) -1.4 (-00:0) 1.2 7.22 (12:50) 3.89 (13:10) 0 0 0 0 0
18-01-2021 12 (16:40) 3.4 (00:00) 7.7 7.5 (15:50) 4.44 (15:50) 0 0 0 0 0
17-01-2021 11.4 (15:40) 1.5 (00:00) 6.4 9.17 (10:30) 5.28 (09:10) 0 0 0 0 0
16-01-2021 11.2 (16:10) 1.4 (00:00) 6.3 8.89 (22:40) 5 (05:30) 0 0 0 0 0
14-01-2021 6.5 (13:10) -1.3 (08:40) 2.6 8.06 (15:00) 5 (15:00) 0 0 0 0 0
13-01-2021 8.3 (17:00) 0.5 (00:00) 4.4 5.56 (11:20) 3.33 (11:20) 0 0 0 0 0
12-01-2021 6.6 (16:00) 0 (00:00) 3.3 7.5 (15:20) 4.44 (16:20) 0 0 0 0 0
11-01-2021 5.3 (12:30) 0.6 (00:00) 3 9.72 (15:10) 6.11 (15:50) 0 0 0 0 0
10-01-2021 4 (13:30) -0.7 (00:00) 1.7 8.61 (13:30) 4.72 (13:10) 2.4 1.6 0.8 0 0
08-01-2021 2.2 (14:40) -2 (-00:0) 0.1 6.39 (11:00) 3.61 (11:00) 0 0 0 0 0
23-12-2020 9.9 (15:50) 6.2 (00:00) 8 5.28 (02:20) 2.78 (02:40) 1.2 0 0 0 1.2
06-01-2021 7 (16:50) -1.9 (-00:0) 2.6 4.17 (15:10) 2.5 (15:20) 0 0 0 0 0
05-01-2021 4.1 (15:10) -0.2 (00:00) 1.9 7.22 (14:10) 4.17 (10:50) 0 0 0 0 0
04-01-2021 4 (15:20) 0 (00:00) 2 11.11 (14:30) 6.67 (15:30) 0 0 0 0 0
03-01-2021 3.8 (17:40) 0.5 (00:00) 2.1 9.44 (18:40) 5.28 (18:30) 4 0 0.4 0 3.6
30-12-2020 6.6 (16:10) 2.1 (00:00) 4.3 10.83 (17:30) 5.83 (13:30) 0 0 0 0 0
28-12-2020 10.3 (00:20) 3.7 (00:00) 7 18.33 (14:40) 10.83 (14:40) 6.6 6.4 0.2 0 0
27-12-2020 10.1 (23:59) 1.5 (00:00) 5.8 13.89 (22:40) 6.67 (22:40) 0 0 0 0 0
26-12-2020 6.5 (14:00) 2.4 (00:00) 4.5 9.44 (00:50) 4.72 (06:20) 0.4 0.2 0.2 0 0
25-12-2020 6.5 (00:00) 3 (00:00) 4.8 9.44 (15:40) 5.28 (13:40) 0.8 0.2 0 0 0.6
24-12-2020 10.6 (16:30) 5.9 (00:00) 8.3 8.06 (22:30) 4.72 (22:30) 0.4 0.4 0 0 0
02-01-2021 2.8 (16:10) 0.3 (00:00) 1.5 11.94 (02:20) 6.67 (01:40) 12.2 5.8 6.2 0.2 0
15-01-2021 8.5 (16:20) 3.7 (00:00) 6.1 10.28 (12:50) 5.28 (12:40) 0.2 0 0 0.2 0
29-12-2020 7.2 (14:30) 3.5 (00:00) 5.3 13.06 (11:50) 8.06 (11:50) 0.4 0 0 0.4 0
01-01-2021 6.9 (13:40) 1.6 (00:00) 4.3 13.33 (15:20) 8.61 (15:20) 0.6 0 0 0.6 0
31-12-2020 9.6 (15:10) 2.5 (00:00) 6.1 10 (15:10) 5.83 (15:10) 2.4 0 0 0.8 1.6
09-01-2021 0.6 (15:50) -1 (-00:0) -0.2 4.17 (09:10) 2.5 (13:20) 4.8 0 1 2 1.8

Gráficas

Temp. máximas Temp. mínimas Temp. medias Precipitaciones Rachas de viento máximas Velocidades máximas media en intervalos de 10 minutos

Datos horarios

Fecha y hora oficial Temperatura (ºC) Velocidad del viento (km/h) Dirección del viento Racha (km/h) Dirección de racha Precipitación (mm) Presión (hPa) Tendencia (hPa) Humedad (%)
2021-01-21 23:00:00 11.3 4 Sudeste 18 Oeste 0 -- -- 64
2021-01-21 22:00:00 12.8 8 Oeste 33 Oeste 0 -- -- 59
2021-01-21 21:00:00 13.3 18 Oeste 41 Oeste 0 -- -- 59
2021-01-21 20:00:00 13.4 18 Oeste 48 Oeste 0 -- -- 57
2021-01-21 19:00:00 11 8 Sudoeste 23 Oeste 0 -- -- 73
2021-01-21 18:00:00 10.8 2 Sudoeste 11 Sudeste 0 -- -- 77
2021-01-21 17:00:00 10.4 4 Sudeste 13 Este 0 -- -- 81
2021-01-21 16:00:00 9.6 5 Nordeste 9 Nordeste 0 -- -- 84
2021-01-21 15:00:00 9.2 2 Este 8 Sur 0 -- -- 85
2021-01-21 14:00:00 9 4 Este 13 Este 0 -- -- 84
2021-01-21 13:00:00 9 7 Este 17 Este 0 -- -- 82
2021-01-21 12:00:00 8.4 6 Este 14 Sudeste 0 -- -- 84
2021-01-21 11:00:00 7.1 9 Este 19 Este 0 -- -- 89
2021-01-21 10:00:00 5.8 3 Sudeste 13 Este 0 -- -- 93
2021-01-21 09:00:00 5.8 6 Este 15 Este 0 -- -- 91
2021-01-21 08:00:00 5.7 3 Nordeste 10 Este 0 -- -- 92
2021-01-21 07:00:00 5.8 2 Este 11 Nordeste 0 -- -- 91
2021-01-21 06:00:00 6 7 Nordeste 16 Sudeste 0 -- -- 89
2021-01-21 05:00:00 6.1 3 Este 8 Este 0 -- -- 90
2021-01-21 04:00:00 6.2 3 Este 13 Este 0 -- -- 90
2021-01-21 03:00:00 6.1 3 Nordeste 17 Nordeste 0 -- -- 89
2021-01-21 02:00:00 6.6 5 Nordeste 14 Nordeste 0 -- -- 86
2021-01-21 01:00:00 7.2 5 Sur 14 Sudeste 0 -- -- 84
2021-01-21 00:00:00 7.2 2 Sudeste 19 Sudeste 0 -- -- 82
2021-01-20 23:00:00 7.5 5 Este 16 Este 0 -- -- 80
2021-01-20 22:00:00 7.6 9 Este 18 Este 0 -- -- 80
2021-01-20 21:00:00 8.2 5 Este 12 Este 0 -- -- 76
2021-01-20 20:00:00 9 4 Nordeste 9 Este 0 -- -- 73
2021-01-20 19:00:00 9.5 3 Sudeste 14 Este 0 -- -- 70
2021-01-20 18:00:00 11.6 5 Sur 17 Sudoeste 0 -- -- 60
2021-01-20 17:00:00 11.5 3 Nordeste 8 Nordeste 0 -- -- 63
2021-01-20 16:00:00 11.9 6 Este 17 Nordeste 0 -- -- 61
2021-01-20 15:00:00 13.2 0 Calma 8 Oeste 0 -- -- 52
2021-01-20 14:00:00 12.4 2 Noroeste 15 Nordeste 0 -- -- 59
2021-01-20 13:00:00 9.8 5 Nordeste 20 Este 0 -- -- 73
2021-01-20 12:00:00 6.9 9 Este 25 Este 0 -- -- 81
2021-01-20 11:00:00 5.3 6 Este 34 Este 0 -- -- 88
2021-01-20 10:00:00 4.2 12 Este 26 Este 0 -- -- 95
2021-01-20 09:00:00 3.1 6 Sudeste 15 Este 0 -- -- 96
2021-01-20 08:00:00 3.3 2 Sudeste 14 Este 0 -- -- 96
2021-01-20 07:00:00 3.4 5 Este 10 Este 0 -- -- 95
2021-01-20 06:00:00 3.2 2 Sur 5 Este 0 -- -- 94
2021-01-20 05:00:00 3.1 2 Sudeste 15 Este 0 -- -- 94
2021-01-20 04:00:00 3.1 9 Este 14 Este 0 -- -- 95
2021-01-20 03:00:00 2.9 3 Sudeste 9 Este 0 -- -- 95
2021-01-20 02:00:00 3.1 5 Este 16 Este 0 -- -- 95
2021-01-20 01:00:00 3.1 9 Este 18 Sudeste 0 -- -- 95
2021-01-20 00:00:00 2.9 9 Este 17 Este 0 -- -- 95
2021-01-19 23:00:00 2.9 10 Este 18 Este 0 -- -- 96
2021-01-19 22:00:00 2.8 6 Este 13 Este 0 -- -- 95
2021-01-19 21:00:00 2.8 3 Este 10 Este 0 -- -- 94
2021-01-19 20:00:00 2.8 4 Este 8 Este 0 -- -- 95
2021-01-19 19:00:00 2.9 0 Calma 5 Este 0 -- -- 93
2021-01-19 18:00:00 3.3 3 Este 9 Sur 0 -- -- 92
2021-01-19 17:00:00 3.5 3 Sudeste 24 Sudeste 0 -- -- 91
2021-01-19 16:00:00 3.8 7 Este 20 Sudeste 0 -- -- 92
2021-01-19 15:00:00 3.7 5 Sudeste 18 Sudeste 0 -- -- 95
2021-01-19 14:00:00 3.4 9 Este 23 Sudeste 0 -- -- 97
2021-01-19 13:00:00 3.1 13 Este 26 Este 0 -- -- 98
2021-01-19 12:00:00 3.2 9 Este 20 Este 0 -- -- 100
2021-01-19 11:00:00 2.3 6 Este 13 Sudeste 0 -- -- 100
2021-01-19 10:00:00 0.3 2 Nordeste 4 Nordeste 0 -- -- 100
2021-01-19 09:00:00 -0.5 0 Calma 2 Este 0 -- -- 99
2021-01-19 08:00:00 -0.9 0 Calma 5 Sudoeste 0 -- -- 98
2021-01-19 07:00:00 -1.4 0 Calma 4 Noroeste 0 -- -- 97
2021-01-19 06:00:00 -1 0 Calma 3 Sudoeste 0 -- -- 96
2021-01-19 05:00:00 -0.5 0 Calma 2 Sudoeste 0 -- -- 96
2021-01-19 04:00:00 0.3 2 Oeste 4 Noroeste 0 -- -- 95
2021-01-19 03:00:00 1.1 0 Calma 4 Oeste 0 -- -- 94
2021-01-19 02:00:00 1.9 2 Sudoeste 8 Sudoeste 0 -- -- 93
2021-01-19 01:00:00 2.7 0 Calma 8 Oeste 0 -- -- 92
2021-01-19 00:00:00 3.4 3 Oeste 13 Oeste 0 -- -- 90
2021-01-18 23:00:00 4.4 8 Oeste 15 Oeste 0 -- -- 89
2021-01-18 22:00:00 5 6 Oeste 16 Oeste 0 -- -- 87
2021-01-18 21:00:00 5.8 7 Oeste 14 Oeste 0 -- -- 85
2021-01-18 20:00:00 6.9 7 Oeste 18 Oeste 0 -- -- 81
2021-01-18 19:00:00 8.6 14 Oeste 23 Oeste 0 -- -- 76
2021-01-18 18:00:00 10.1 14 Oeste 26 Oeste 0 -- -- 70
2021-01-18 17:00:00 11.9 13 Oeste 26 Oeste 0 -- -- 65
2021-01-18 16:00:00 11.8 15 Oeste 27 Oeste 0 -- -- 65
2021-01-18 15:00:00 11 13 Oeste 21 Noroeste 0 -- -- 69
2021-01-18 14:00:00 10.4 13 Oeste 23 Noroeste 0 -- -- 71
2021-01-18 13:00:00 9.8 6 Oeste 18 Noroeste 0 -- -- 74
2021-01-18 12:00:00 9.8 13 Oeste 21 Oeste 0 -- -- 72
2021-01-18 11:00:00 7.6 6 Noroeste 10 Noroeste 0 -- -- 86
2021-01-18 10:00:00 5.5 4 Oeste 7 Oeste 0 -- -- 95
2021-01-18 09:00:00 4.7 3 Oeste 8 Sudoeste 0 -- -- 96
2021-01-18 08:00:00 4.4 4 Oeste 10 Oeste 0 -- -- 97
2021-01-18 07:00:00 3.9 6 Oeste 11 Oeste 0 -- -- 97
2021-01-18 06:00:00 3.5 7 Oeste 13 Oeste 0 -- -- 96
2021-01-18 05:00:00 3.8 8 Oeste 12 Noroeste 0 -- -- 95
2021-01-18 04:00:00 4.6 5 Oeste 10 Noroeste 0 -- -- 94
2021-01-18 03:00:00 5.6 6 Oeste 10 Oeste 0 -- -- 94
2021-01-18 02:00:00 6.5 6 Oeste 9 Oeste 0 -- -- 93
2021-01-18 01:00:00 6 5 Oeste 9 Oeste 0 -- -- 90
2021-01-18 00:00:00 6.3 5 Oeste 12 Oeste 0 -- -- 87
2021-01-17 23:00:00 7.2 5 Noroeste 13 Oeste 0 -- -- 86
2021-01-17 22:00:00 6.9 3 Noroeste 8 Oeste 0 -- -- 84
2021-01-17 21:00:00 7.4 5 Oeste 10 Oeste 0 -- -- 82
2021-01-17 20:00:00 8 0 Calma 5 Este 0 -- -- 79
2021-01-17 19:00:00 8.9 5 Oeste 24 Oeste 0 -- -- 75
2021-01-17 18:00:00 9.8 11 Oeste 21 Oeste 0 -- -- 72
2021-01-17 17:00:00 10.6 13 Oeste 24 Oeste 0 -- -- 68
2021-01-17 16:00:00 11 10 Noroeste 20 Oeste 0 -- -- 65
2021-01-17 15:00:00 11.2 10 Oeste 26 Oeste 0 -- -- 64
2021-01-17 14:00:00 10.1 16 Oeste 27 Noroeste 0 -- -- 60
2021-01-17 13:00:00 8.4 12 Oeste 29 Oeste 0 -- -- 60
2021-01-17 12:00:00 7.6 14 Oeste 24 Oeste 0 -- -- 59
2021-01-17 11:00:00 5.7 13 Oeste 33 Sudoeste 0 -- -- 62
2021-01-17 10:00:00 3.1 7 Oeste 31 Oeste 0 -- -- 72
2021-01-17 09:00:00 2.3 12 Oeste 31 Oeste 0 -- -- 75
2021-01-17 08:00:00 1.5 9 Sudoeste 20 Sudoeste 0 -- -- 76
2021-01-17 07:00:00 2.1 11 Oeste 19 Sudoeste 0 -- -- 74
2021-01-17 06:00:00 2.4 10 Oeste 23 Oeste 0 -- -- 71
2021-01-17 05:00:00 2.2 13 Oeste 23 Oeste 0 -- -- 72
2021-01-17 04:00:00 2 13 Oeste 27 Oeste 0 -- -- 71
2021-01-17 03:00:00 2.4 11 Oeste 25 Sudoeste 0 -- -- 69
2021-01-17 02:00:00 2.7 15 Oeste 26 Sudoeste 0 -- -- 67
2021-01-17 01:00:00 2.5 13 Oeste 22 Oeste 0 -- -- 70
2021-01-17 00:00:00 2.4 5 Sudoeste 23 Oeste 0 -- -- 70
2021-01-16 23:00:00 3.9 8 Oeste 32 Oeste 0 -- -- 63
2021-01-16 22:00:00 4.5 8 Oeste 23 Oeste 0 -- -- 59
2021-01-16 21:00:00 4.9 12 Oeste 22 Oeste 0 -- -- 61
2021-01-16 20:00:00 5.8 11 Oeste 21 Sudoeste 0 -- -- 58
2021-01-16 19:00:00 6.9 2 Oeste 18 Noroeste 0 -- -- 58
2021-01-16 18:00:00 8.5 10 Oeste 25 Oeste 0 -- -- 52
2021-01-16 17:00:00 10.6 13 Oeste 22 Oeste 0 -- -- 50
2021-01-16 16:00:00 11 13 Oeste 23 Oeste 0 -- -- 54
2021-01-16 15:00:00 9.7 13 Noroeste 24 Noroeste 0 -- -- 56
2021-01-16 14:00:00 8.7 13 Oeste 22 Oeste 0 -- -- 62
2021-01-16 13:00:00 7.4 14 Oeste 25 Oeste 0 -- -- 63
2021-01-16 12:00:00 6.6 15 Oeste 23 Oeste 0 -- -- 68
2021-01-16 11:00:00 5.3 10 Oeste 19 Oeste 0 -- -- 72
2021-01-16 10:00:00 2.5 10 Oeste 19 Sudoeste 0 -- -- 83
2021-01-16 09:00:00 1.5 7 Oeste 17 Sudoeste 0 -- -- 87
2021-01-16 08:00:00 1.5 7 Oeste 22 Noroeste 0 -- -- 87
2021-01-16 07:00:00 2.8 8 Oeste 26 Sudoeste 0 -- -- 81
2021-01-16 06:00:00 4.6 15 Oeste 28 Oeste 0 -- -- 78
2021-01-16 05:00:00 4.1 16 Oeste 25 Oeste 0 -- -- 81
2021-01-16 04:00:00 3.1 0 Calma 17 Oeste 0 -- -- 83
2021-01-16 03:00:00 3.7 6 Oeste 13 Oeste 0 -- -- 83
2021-01-16 02:00:00 4.2 3 Noroeste 15 Oeste 0 -- -- 82
2021-01-16 01:00:00 4.7 11 Oeste 19 Oeste 0 -- -- 81
2021-01-16 00:00:00 5.1 10 Oeste 19 Oeste 0 -- -- 79
2021-01-15 23:00:00 5.4 7 Noroeste 18 Oeste 0 -- -- 78
2021-01-15 22:00:00 5.4 10 Oeste 21 Oeste 0 -- -- 81
2021-01-15 21:00:00 5.4 12 Sudoeste 21 Oeste 0 -- -- 83
2021-01-15 20:00:00 5 4 Sudoeste 10 Oeste 0 -- -- 84
2021-01-15 19:00:00 5.5 3 Oeste 13 Oeste 0 -- -- 80
2021-01-15 18:00:00 6.6 7 Oeste 17 Oeste 0 -- -- 77
2021-01-15 17:00:00 8 10 Noroeste 30 Noroeste 0 -- -- 74
2021-01-15 16:00:00 7.6 12 Oeste 21 Oeste 0.2 -- -- 78
2021-01-15 15:00:00 7.5 8 Noroeste 28 Noroeste 0 -- -- 82
2021-01-15 14:00:00 8.2 14 Oeste 30 Oeste 0 -- -- 74
2021-01-15 13:00:00 7.7 13 Oeste 37 Oeste 0 -- -- 79
2021-01-15 12:00:00 7.2 14 Oeste 30 Oeste 0 -- -- 81
2021-01-15 11:00:00 5.6 13 Oeste 30 Oeste 0 -- -- 89
2021-01-15 10:00:00 4.7 15 Oeste 27 Sudoeste 0 -- -- 89
2021-01-15 09:00:00 4.4 5 Noroeste 14 Noroeste 0 -- -- 88
2021-01-15 08:00:00 5.5 11 Oeste 28 Sudoeste 0 -- -- 83
2021-01-15 07:00:00 3.7 0 Calma 16 Oeste 0 -- -- 91
2021-01-15 06:00:00 4 4 Noroeste 13 Noroeste 0 -- -- 91
2021-01-15 05:00:00 3.7 3 Noroeste 7 Sudoeste 0 -- -- 92
2021-01-15 04:00:00 4.2 3 Noroeste 15 Oeste 0 -- -- 94
2021-01-15 03:00:00 3.7 3 Noroeste 7 Noroeste 0 -- -- 94
2021-01-15 02:00:00 4.1 0 Calma 8 Noroeste 0 -- -- 93
2021-01-15 01:00:00 4.9 4 Noroeste 12 Noroeste 0 -- -- 92
2021-01-15 00:00:00 5.4 4 Noroeste 15 Oeste 0 -- -- 90
2021-01-14 23:00:00 5.8 10 Oeste 19 Oeste 0 -- -- 90
2021-01-14 22:00:00 5.5 7 Oeste 13 Oeste 0 -- -- 90
2021-01-14 21:00:00 5.7 8 Oeste 16 Oeste 0 -- -- 84
2021-01-14 20:00:00 5.5 7 Oeste 14 Oeste 0 -- -- 83
2021-01-14 19:00:00 5.4 7 Oeste 18 Oeste 0 -- -- 81
2021-01-14 18:00:00 5.1 5 Oeste 16 Oeste 0 -- -- 80
2021-01-14 17:00:00 6.1 11 Oeste 25 Oeste 0 -- -- 74
2021-01-14 16:00:00 6 12 Oeste 28 Oeste 0 -- -- 75
2021-01-14 15:00:00 6.1 18 Oeste 29 Oeste 0 -- -- 77
2021-01-14 14:00:00 6.3 13 Oeste 26 Oeste 0 -- -- 77
2021-01-14 13:00:00 6.4 11 Oeste 26 Oeste 0 -- -- 75
2021-01-14 12:00:00 5 14 Noroeste 23 Oeste 0 -- -- 78
2021-01-14 11:00:00 3.8 9 Oeste 21 Oeste 0 -- -- 78
2021-01-14 10:00:00 0.5 6 Noroeste 17 Oeste 0 -- -- 89
2021-01-14 09:00:00 -1.1 7 Noroeste 14 Noroeste 0 -- -- 91
2021-01-14 08:00:00 -1.1 8 Oeste 14 Noroeste 0 -- -- 91
2021-01-14 07:00:00 -0.4 5 Oeste 11 Noroeste 0 -- -- 89
2021-01-14 06:00:00 0.4 5 Oeste 10 Noroeste 0 -- -- 89
2021-01-14 05:00:00 0.6 2 Oeste 15 Sudoeste 0 -- -- 89
2021-01-14 04:00:00 -0.1 3 Noroeste 12 Noroeste 0 -- -- 89
2021-01-14 03:00:00 0.3 3 Noroeste 11 Noroeste 0 -- -- 88
2021-01-14 02:00:00 1.1 6 Noroeste 15 Oeste 0 -- -- 86
2021-01-14 01:00:00 1.1 4 Oeste 15 Sudoeste 0 -- -- 87
2021-01-14 00:00:00 1.1 4 Oeste 14 Sudoeste 0 -- -- 91
2021-01-13 23:00:00 1.1 3 Noroeste 9 Oeste 0 -- -- 89
2021-01-13 22:00:00 2 5 Oeste 9 Oeste 0 -- -- 87
2021-01-13 21:00:00 2.6 4 Noroeste 9 Noroeste 0 -- -- 85
2021-01-13 20:00:00 3.6 2 Noroeste 7 Noroeste 0 -- -- 83
2021-01-13 19:00:00 5.1 3 Noroeste 17 Oeste 0 -- -- 78
2021-01-13 18:00:00 6.9 9 Oeste 19 Oeste 0 -- -- 72
2021-01-13 17:00:00 8.3 9 Oeste 17 Oeste 0 -- -- 67
2021-01-13 16:00:00 8 10 Oeste 18 Oeste 0 -- -- 70
2021-01-13 15:00:00 7.2 7 Oeste 16 Oeste 0 -- -- 75
2021-01-13 14:00:00 6.1 8 Oeste 15 Noroeste 0 -- -- 76
2021-01-13 13:00:00 4.8 8 Noroeste 16 Oeste 0 -- -- 78
2021-01-13 12:00:00 3.6 9 Oeste 20 Oeste 0 -- -- 80
2021-01-13 11:00:00 2.5 10 Oeste 19 Oeste 0 -- -- 82
2021-01-13 10:00:00 1.7 9 Oeste 18 Oeste 0 -- -- 84
2021-01-13 09:00:00 1.2 9 Oeste 17 Oeste 0 -- -- 85
2021-01-13 08:00:00 1.1 7 Oeste 13 Oeste 0 -- -- 86
2021-01-13 07:00:00 1.1 8 Oeste 13 Oeste 0 -- -- 85
2021-01-13 06:00:00 1.1 8 Oeste 15 Oeste 0 -- -- 86
2021-01-13 05:00:00 0.6 7 Oeste 15 Noroeste 0 -- -- 87
2021-01-13 04:00:00 0.6 6 Oeste 18 Oeste 0 -- -- 86
2021-01-13 03:00:00 0.6 8 Noroeste 15 Noroeste 0 -- -- 86
2021-01-13 02:00:00 0.9 8 Oeste 14 Oeste 0 -- -- 86
2021-01-13 01:00:00 0.8 9 Oeste 14 Noroeste 0 -- -- 85
2021-01-13 00:00:00 1.3 5 Oeste 10 Oeste 0 -- -- 84
2021-01-12 23:00:00 1.5 6 Noroeste 13 Noroeste 0 -- -- 83
2021-01-12 22:00:00 1.7 3 Noroeste 14 Oeste 0 -- -- 83
2021-01-12 21:00:00 2.1 4 Noroeste 10 Sudoeste 0 -- -- 82
2021-01-12 20:00:00 2.3 0 Calma 9 Oeste 0 -- -- 79
2021-01-12 19:00:00 2.9 5 Noroeste 18 Sudoeste 0 -- -- 77
2021-01-12 18:00:00 4.3 9 Sudoeste 18 Oeste 0 -- -- 72
2021-01-12 17:00:00 6.4 11 Oeste 26 Oeste 0 -- -- 66
2021-01-12 16:00:00 6.6 14 Oeste 27 Oeste 0 -- -- 65
2021-01-12 15:00:00 5.6 14 Oeste 27 Sudoeste 0 -- -- 67
2021-01-12 14:00:00 5.5 15 Oeste 27 Oeste 0 -- -- 67
2021-01-12 13:00:00 5.3 14 Oeste 24 Sudoeste 0 -- -- 67
2021-01-12 12:00:00 4.2 12 Sudoeste 21 Sudoeste 0 -- -- 72
2021-01-12 11:00:00 2.9 9 Sudoeste 17 Sudoeste 0 -- -- 76
2021-01-12 10:00:00 2.1 4 Oeste 12 Oeste 0 -- -- 79
2021-01-12 09:00:00 1.4 3 Noroeste 13 Oeste 0 -- -- 82
2021-01-12 08:00:00 1.4 4 Oeste 18 Noroeste 0 -- -- 81
2021-01-12 07:00:00 1.4 4 Noroeste 26 Sudoeste 0 -- -- 77
2021-01-12 06:00:00 0.9 15 Sudoeste 26 Sudoeste 0 -- -- 77
2021-01-12 05:00:00 0.1 4 Noroeste 8 Norte 0 -- -- 81
2021-01-12 04:00:00 0 2 Noroeste 11 Oeste 0 -- -- 80
2021-01-12 03:00:00 0.3 2 Nordeste 19 Sudoeste 0 -- -- 78
2021-01-12 02:00:00 0.6 3 Noroeste 9 Noroeste 0 -- -- 78
2021-01-12 01:00:00 0.6 6 Noroeste 10 Noroeste 0 -- -- 83
2021-01-12 00:00:00 0.8 3 Oeste 16 Oeste 0 -- -- 82
2021-01-11 23:00:00 1.5 9 Sudoeste 20 Sudoeste 0 -- -- 78
2021-01-11 22:00:00 1.4 12 Sudoeste 26 Sudoeste 0 -- -- 79
2021-01-11 21:00:00 0.8 11 Sudoeste 21 Sudoeste 0 -- -- 81
2021-01-11 20:00:00 1.3 8 Sudoeste 20 Sudoeste 0 -- -- 78
2021-01-11 19:00:00 2.6 10 Oeste 23 Oeste 0 -- -- 73
2021-01-11 18:00:00 3.4 12 Noroeste 28 Oeste 0 -- -- 66
2021-01-11 17:00:00 5 15 Oeste 33 Noroeste 0 -- -- 63
2021-01-11 16:00:00 5.1 19 Noroeste 35 Noroeste 0 -- -- 57
2021-01-11 15:00:00 4.9 17 Noroeste 32 Noroeste 0 -- -- 59
2021-01-11 14:00:00 5.1 13 Noroeste 26 Noroeste 0 -- -- 58
2021-01-11 13:00:00 5.1 12 Noroeste 28 Oeste 0 -- -- 61
2021-01-11 12:00:00 5.1 17 Oeste 28 Oeste 0 -- -- 63
2021-01-11 11:00:00 4.6 10 Oeste 19 Oeste 0 -- -- 66
2021-01-11 10:00:00 2.1 4 Sudoeste 23 Sudoeste 0 -- -- 74
2021-01-11 09:00:00 1.5 13 Oeste 25 Oeste 0 -- -- 76
2021-01-11 08:00:00 1 5 Oeste 13 Oeste 0 -- -- 74
2021-01-11 07:00:00 0.9 6 Sudoeste 12 Sudoeste 0 -- -- 74
2021-01-11 06:00:00 1.5 9 Noroeste 17 Noroeste 0 -- -- 73
2021-01-11 05:00:00 2.2 8 Norte 25 Noroeste 0 -- -- 71
2021-01-11 04:00:00 1.6 8 Noroeste 28 Noroeste 0 -- -- 72
2021-01-11 03:00:00 2 16 Noroeste 29 Oeste 0 -- -- 69
2021-01-11 02:00:00 1.5 10 Noroeste 22 Norte 0 -- -- 72
2021-01-11 01:00:00 1.7 13 Noroeste 31 Noroeste 0 -- -- 71
2021-01-11 00:00:00 1.7 12 Noroeste 27 Noroeste 0 -- -- 73
2021-01-10 23:00:00 1.4 10 Oeste 23 Noroeste 0 -- -- 73
2021-01-10 22:00:00 1.4 14 Noroeste 31 Noroeste 0 -- -- 72
2021-01-10 21:00:00 0.9 14 Noroeste 27 Noroeste 0 -- -- 70
2021-01-10 20:00:00 1.2 13 Noroeste 25 Noroeste 0 -- -- 73
2021-01-10 19:00:00 1.2 10 Oeste 20 Noroeste 0 -- -- 77
2021-01-10 18:00:00 1.8 8 Noroeste 28 Oeste 0 -- -- 73
2021-01-10 17:00:00 2.7 14 Noroeste 29 Noroeste 0 -- -- 75
2021-01-10 16:00:00 3 10 Noroeste 20 Noroeste 0 -- -- 74
2021-01-10 15:00:00 3.5 7 Noroeste 27 Oeste 0 -- -- 71
2021-01-10 14:00:00 3.4 14 Noroeste 31 Noroeste 0 -- -- 72
2021-01-10 13:00:00 3.8 15 Oeste 26 Oeste 0 -- -- 71
2021-01-10 12:00:00 3 11 Noroeste 21 Oeste 0 -- -- 79
2021-01-10 11:00:00 2.6 9 Noroeste 21 Oeste 0 -- -- 82
2021-01-10 10:00:00 1.5 9 Oeste 21 Noroeste 0 -- -- 90
2021-01-10 09:00:00 1 9 Noroeste 21 Oeste 0 -- -- 92
2021-01-10 08:00:00 0.9 11 Oeste 23 Oeste 0 -- -- 94
2021-01-10 07:00:00 0.5 10 Oeste 17 Oeste 0.8 -- -- 97
2021-01-10 06:00:00 0.2 0 Calma 13 Oeste 0.2 -- -- 97
2021-01-10 05:00:00 0.1 8 Sudoeste 14 Sudoeste 0.4 -- -- 97
2021-01-10 04:00:00 -0.2 4 Sudoeste 13 Oeste 0.2 -- -- 97
2021-01-10 03:00:00 -0.3 6 Sudoeste 11 Sudoeste 0.6 -- -- 97
2021-01-10 02:00:00 -0.5 6 Sudoeste 12 Sudoeste 0 -- -- 97
2021-01-10 01:00:00 -0.7 5 Sudoeste 9 Sudoeste 0.2 -- -- 96
2021-01-10 00:00:00 -0.7 2 Sudoeste 8 Sudoeste 0.6 -- -- 96
2021-01-09 23:00:00 -0.7 5 Sudoeste 9 Sudoeste 0.2 -- -- 95
2021-01-09 22:00:00 -0.8 2 Sudoeste 9 Sudoeste 0 -- -- 95
2021-01-09 21:00:00 -0.7 3 Sudoeste 7 Sudoeste 0.2 -- -- 96
2021-01-09 20:00:00 -0.6 3 Sudoeste 10 Sudoeste 0.6 -- -- 95
2021-01-09 19:00:00 -0.5 5 Sudoeste 12 Sudoeste 0.2 -- -- 94
2021-01-09 18:00:00 -0.3 3 Sudoeste 11 Sudoeste 0.2 -- -- 93
2021-01-09 17:00:00 0.1 3 Sudoeste 12 Sudoeste 0.4 -- -- 91
2021-01-09 16:00:00 0.6 5 Sudoeste 12 Sudoeste 0.2 -- -- 90
2021-01-09 15:00:00 0.4 5 Sudoeste 13 Sudoeste 0.4 -- -- 91
2021-01-09 14:00:00 0.5 6 Oeste 15 Oeste 0.2 -- -- 90
2021-01-09 13:00:00 0.3 8 Oeste 14 Oeste 0.6 -- -- 91
2021-01-09 12:00:00 -0.3 7 Oeste 12 Noroeste 0.6 -- -- 93
2021-01-09 11:00:00 -0.5 4 Oeste 10 Sudoeste 0.4 -- -- 93
2021-01-09 10:00:00 -0.8 5 Sur 15 Sudoeste 0 -- -- 91
2021-01-09 09:00:00 -1 6 Sur 14 Sur 0 -- -- 92
2021-01-09 08:00:00 -0.9 6 Sudoeste 14 Sudoeste 0 -- -- 92
2021-01-09 07:00:00 -0.9 3 Sudoeste 11 Oeste 0 -- -- 92
2021-01-09 06:00:00 -0.8 6 Sudoeste 10 Sudoeste 0 -- -- 92
2021-01-09 05:00:00 -0.7 4 Sudoeste 9 Sur 0 -- -- 90
2021-01-09 04:00:00 -0.4 5 Sur 14 Sur 0 -- -- 86
2021-01-09 03:00:00 0 3 Sur 10 Sur 0 -- -- 80
2021-01-09 02:00:00 -0.1 3 Sur 12 Sudoeste 0 -- -- 80
2021-01-09 01:00:00 0 5 Sudoeste 9 Sudoeste 0 -- -- 80
2021-01-09 00:00:00 0 4 Sudoeste 10 Sudoeste 0 -- -- 80
2021-01-08 23:00:00 0.2 6 Sudoeste 15 Sudoeste 0 -- -- 80
2021-01-08 22:00:00 0.2 5 Sudoeste 13 Sur 0 -- -- 79
2021-01-08 21:00:00 0.4 6 Sudoeste 13 Sudoeste 0 -- -- 79
2021-01-08 20:00:00 0.6 7 Sudoeste 18 Sudoeste 0 -- -- 77
2021-01-08 19:00:00 0.8 6 Sudoeste 15 Sudoeste 0 -- -- 75
2021-01-08 18:00:00 1.2 9 Sudoeste 18 Sudoeste 0 -- -- 73
2021-01-08 17:00:00 1.9 6 Sudoeste 14 Sudoeste 0 -- -- 70
2021-01-08 16:00:00 2.2 8 Sudoeste 17 Oeste 0 -- -- 68
2021-01-08 15:00:00 2.2 9 Oeste 18 Oeste 0 -- -- 67
2021-01-08 14:00:00 2 10 Oeste 21 Oeste 0 -- -- 66
2021-01-08 13:00:00 1.5 11 Sudoeste 21 Sudoeste 0 -- -- 70
2021-01-08 12:00:00 0.7 10 Oeste 23 Sudoeste 0 -- -- 73
2021-01-08 11:00:00 0.1 13 Sudoeste 23 Sudoeste 0 -- -- 74
2021-01-08 10:00:00 -1 10 Oeste 18 Sudoeste 0 -- -- 79
2021-01-08 09:00:00 -1.8 8 Sudoeste 17 Oeste 0 -- -- 81
2021-01-08 08:00:00 -2 8 Sudoeste 21 Sudoeste 0 -- -- 81
2021-01-08 07:00:00 -1.7 9 Sudoeste 19 Oeste 0 -- -- 80
2021-01-08 06:00:00 -1.5 10 Oeste 17 Oeste 0 -- -- 80
2021-01-08 05:00:00 -1.4 5 Oeste 14 Oeste 0 -- -- 78
2021-01-08 04:00:00 -0.5 6 Oeste 14 Oeste 0 -- -- 74
2021-01-08 03:00:00 0.2 6 Oeste 12 Oeste 0 -- -- 72
2021-01-08 02:00:00 0.3 5 Oeste 14 Oeste 0 -- -- 75
2021-01-08 01:00:00 0.5 6 Oeste 14 Oeste 0 -- -- 76
2021-01-08 00:00:00 0.6 6 Oeste 12 Noroeste 0 -- -- 78
2021-01-07 23:00:00 0.5 5 Oeste 10 Oeste 0 -- -- 81
2021-01-07 22:00:00 -0.2 4 Oeste 11 Sudoeste 0 -- -- 85
2021-01-07 21:00:00 -0.4 3 Oeste 10 Oeste 0 -- -- 88
2021-01-07 20:00:00 -0.4 4 Oeste 12 Oeste 0 -- -- 84
2021-01-07 19:00:00 0.5 8 Oeste 15 Oeste 0 -- -- 79
2021-01-07 18:00:00 2 3 Noroeste 11 Noroeste 0 -- -- 78
2021-01-07 17:00:00 4.2 5 Oeste 11 Oeste 0 -- -- 71
2021-01-07 16:00:00 3.4 4 Oeste 9 Sudoeste 0 -- -- 77
2021-01-07 15:00:00 0.9 5 Oeste 10 Oeste 0 -- -- 86
2021-01-07 14:00:00 -0.4 5 Oeste 12 Oeste 0 -- -- 93
2021-01-07 13:00:00 -2 7 Oeste 16 Oeste 0 -- -- 97
2021-01-07 12:00:00 -2.8 8 Oeste 15 Oeste 0 -- -- 98
2021-01-07 11:00:00 -3.2 7 Oeste 14 Oeste 0 -- -- 98
2021-01-07 10:00:00 -3.6 6 Oeste 15 Oeste 0 -- -- 98
2021-01-07 09:00:00 -3.8 8 Oeste 16 Oeste 0 -- -- 97
2021-01-07 08:00:00 -4.1 5 Oeste 12 Oeste 0 -- -- 97
2021-01-07 07:00:00 -4.1 5 Oeste 9 Oeste 0 -- -- 96
2021-01-07 06:00:00 -3.8 4 Oeste 9 Oeste 0 -- -- 94
2021-01-07 05:00:00 -3.5 4 Oeste 8 Oeste 0 -- -- 93
2021-01-07 04:00:00 -3.4 4 Oeste 8 Oeste 0 -- -- 94
2021-01-07 03:00:00 -3.2 0 Calma 5 Noroeste 0 -- -- 94
2021-01-07 02:00:00 -2.9 0 Calma 4 Oeste 0 -- -- 92
2021-01-07 01:00:00 -2.3 0 Calma 3 Sudoeste 0 -- -- 91
2021-01-07 00:00:00 -1.9 0 Calma 4 Sudoeste 0 -- -- 88
2021-01-06 23:00:00 -1.3 3 Oeste 5 Noroeste 0 -- -- 87
2021-01-06 22:00:00 -0.9 0 Calma 4 Oeste 0 -- -- 88
2021-01-06 21:00:00 -0.4 0 Calma 5 Oeste 0 -- -- 88
2021-01-06 20:00:00 0.7 3 Sudoeste 8 Sudoeste 0 -- -- 78
2021-01-06 19:00:00 2 2 Sur 6 Sudoeste 0 -- -- 73
2021-01-06 18:00:00 4.7 2 Sudoeste 4 Oeste 0 -- -- 59
2021-01-06 17:00:00 6.9 4 Oeste 7 Oeste 0 -- -- 49
2021-01-06 16:00:00 5.5 2 Oeste 15 Oeste 0 -- -- 58
2021-01-06 15:00:00 5.2 8 Oeste 14 Oeste 0 -- -- 59
2021-01-06 14:00:00 5.2 4 Noroeste 13 Oeste 0 -- -- 69
2021-01-06 13:00:00 5 3 Noroeste 8 Oeste 0 -- -- 70
2021-01-06 12:00:00 3.9 0 Calma 5 Noroeste 0 -- -- 79
2021-01-06 11:00:00 2.7 3 Oeste 8 Oeste 0 -- -- 83
2021-01-06 10:00:00 1.2 2 Oeste 6 Oeste 0 -- -- 89
2021-01-06 09:00:00 0.8 2 Noroeste 6 Sudoeste 0 -- -- 87
2021-01-06 08:00:00 1.1 4 Sudoeste 8 Sudoeste 0 -- -- 85
2021-01-06 07:00:00 1.3 0 Calma 8 Sudoeste 0 -- -- 86
2021-01-06 06:00:00 1.4 0 Calma 5 Sudoeste 0 -- -- 85
2021-01-06 05:00:00 1.5 0 Calma 7 Sudoeste 0 -- -- 89
2021-01-06 04:00:00 1.5 2 Noroeste 8 Sudoeste 0 -- -- 90
2021-01-06 03:00:00 1.5 0 Calma 7 Sudoeste 0 -- -- 90
2021-01-06 02:00:00 1.5 3 Sudoeste 6 Sudoeste 0 -- -- 91
2021-01-06 01:00:00 1.6 2 Noroeste 6 Oeste 0 -- -- 90
2021-01-06 00:00:00 1.7 3 Noroeste 5 Noroeste 0 -- -- 88
2021-01-05 23:00:00 1.8 0 Calma 10 Sudoeste 0 -- -- 86
2021-01-05 22:00:00 1.9 5 Oeste 9 Oeste 0 -- -- 82
2021-01-05 21:00:00 1.9 4 Oeste 7 Oeste 0 -- -- 83
2021-01-05 20:00:00 2 5 Oeste 15 Oeste 0 -- -- 81
2021-01-05 19:00:00 1.5 5 Oeste 13 Oeste 0 -- -- 83
2021-01-05 18:00:00 2.3 5 Oeste 17 Sudoeste 0 -- -- 79
2021-01-05 17:00:00 3.4 7 Oeste 16 Oeste 0 -- -- 71
2021-01-05 16:00:00 3.8 9 Oeste 21 Oeste 0 -- -- 72
2021-01-05 15:00:00 4 13 Oeste 26 Oeste 0 -- -- 71
2021-01-05 14:00:00 3.6 13 Oeste 22 Oeste 0 -- -- 73
2021-01-05 13:00:00 3.6 13 Oeste 25 Oeste 0 -- -- 73
2021-01-05 12:00:00 2.9 9 Oeste 23 Oeste 0 -- -- 75
2021-01-05 11:00:00 1.8 13 Oeste 24 Oeste 0 -- -- 81
2021-01-05 10:00:00 1.1 14 Oeste 23 Oeste 0 -- -- 85
2021-01-05 09:00:00 0.9 12 Oeste 20 Sudoeste 0 -- -- 85
2021-01-05 08:00:00 0.7 6 Oeste 14 Oeste 0 -- -- 87
2021-01-05 07:00:00 0.5 7 Oeste 12 Oeste 0 -- -- 87
2021-01-05 06:00:00 0.5 7 Oeste 12 Noroeste 0 -- -- 87
2021-01-05 05:00:00 0.2 5 Noroeste 15 Oeste 0 -- -- 90
2021-01-05 04:00:00 0.4 10 Oeste 20 Oeste 0 -- -- 92
2021-01-05 03:00:00 0.1 9 Oeste 15 Oeste 0 -- -- 88
2021-01-05 02:00:00 0.2 4 Noroeste 13 Oeste 0 -- -- 87
2021-01-05 01:00:00 0.1 6 Oeste 13 Oeste 0 -- -- 90
2021-01-05 00:00:00 0.6 5 Oeste 13 Oeste 0 -- -- 90
2021-01-04 23:00:00 1.1 5 Oeste 13 Oeste 0 -- -- 89
2021-01-04 22:00:00 1.2 5 Oeste 19 Oeste 0 -- -- 91
2021-01-04 21:00:00 1.5 10 Oeste 17 Oeste 0 -- -- 89
2021-01-04 20:00:00 1.6 10 Oeste 19 Oeste 0 -- -- 87
2021-01-04 19:00:00 2 12 Oeste 24 Oeste 0 -- -- 84
2021-01-04 18:00:00 2.7 12 Oeste 30 Oeste 0 -- -- 83
2021-01-04 17:00:00 3.2 14 Oeste 34 Oeste 0 -- -- 80
2021-01-04 16:00:00 3.9 18 Oeste 37 Oeste 0 -- -- 74
2021-01-04 15:00:00 3.8 22 Oeste 40 Oeste 0 -- -- 73
2021-01-04 14:00:00 3.5 15 Noroeste 28 Noroeste 0 -- -- 75
2021-01-04 13:00:00 2 14 Noroeste 29 Oeste 0 -- -- 88
2021-01-04 12:00:00 1.9 14 Noroeste 26 Oeste 0 -- -- 87
2021-01-04 11:00:00 0.7 12 Oeste 26 Oeste 0 -- -- 91
2021-01-04 10:00:00 0.9 11 Oeste 25 Oeste 0 -- -- 84
2021-01-04 09:00:00 0.3 14 Oeste 26 Oeste 0 -- -- 86
2021-01-04 08:00:00 0.1 10 Oeste 18 Oeste 0 -- -- 87
2021-01-04 07:00:00 0.3 8 Oeste 18 Oeste 0 -- -- 87
2021-01-04 06:00:00 0.2 8 Oeste 16 Oeste 0 -- -- 88
2021-01-04 05:00:00 0.4 8 Oeste 16 Oeste 0 -- -- 88
2021-01-04 04:00:00 1 12 Oeste 19 Oeste 0 -- -- 87
2021-01-04 03:00:00 1.3 10 Oeste 17 Oeste 0 -- -- 89
2021-01-04 02:00:00 1.5 3 Oeste 11 Oeste 0 -- -- 89
2021-01-04 01:00:00 2.1 9 Oeste 15 Sudoeste 0 -- -- 86
2021-01-04 00:00:00 2.1 6 Oeste 23 Sudoeste 0 -- -- 86
2021-01-03 23:00:00 2 10 Sudoeste 18 Sudoeste 0 -- -- 92
2021-01-03 22:00:00 1.7 6 Oeste 23 Sudoeste 0 -- -- 95
2021-01-03 21:00:00 1.3 10 Sudoeste 19 Sudoeste 0.2 -- -- 96
2021-01-03 20:00:00 1.3 11 Sudoeste 24 Oeste 1.4 -- -- 94
2021-01-03 19:00:00 1.5 8 Oeste 34 Noroeste 2 -- -- 93
2021-01-03 18:00:00 3.7 2 Noroeste 12 Sudoeste 0 -- -- 80
2021-01-03 17:00:00 3.7 6 Oeste 21 Oeste 0 -- -- 80
2021-01-03 16:00:00 3.5 10 Noroeste 28 Oeste 0 -- -- 79
2021-01-03 15:00:00 3.5 13 Oeste 23 Oeste 0 -- -- 80
2021-01-03 14:00:00 3.1 14 Oeste 28 Oeste 0 -- -- 81
2021-01-03 13:00:00 2.8 15 Oeste 27 Oeste 0 -- -- 80
2021-01-03 12:00:00 3.1 9 Noroeste 19 Oeste 0 -- -- 81
2021-01-03 11:00:00 1.9 9 Oeste 19 Oeste 0.2 -- -- 94
2021-01-03 10:00:00 1.2 6 Noroeste 14 Oeste 0.2 -- -- 94
2021-01-03 09:00:00 1 8 Oeste 18 Oeste 0 -- -- 93
2021-01-03 08:00:00 0.6 6 Noroeste 13 Oeste 0 -- -- 92
2021-01-03 07:00:00 0.6 5 Oeste 10 Noroeste 0 -- -- 91
2021-01-03 06:00:00 1.2 7 Oeste 17 Sudoeste 0 -- -- 88
2021-01-03 05:00:00 0.9 3 Oeste 10 Sudoeste 0 -- -- 89
2021-01-03 04:00:00 1.2 9 Oeste 21 Oeste 0 -- -- 88
2021-01-03 03:00:00 1.2 7 Oeste 21 Oeste 0 -- -- 89
2021-01-03 02:00:00 1.4 2 Noroeste 11 Oeste 0 -- -- 91
2021-01-03 01:00:00 1.3 7 Oeste 12 Oeste 0 -- -- 89
2021-01-03 00:00:00 1.2 3 Noroeste 18 Oeste 0 -- -- 87
2021-01-02 23:00:00 1.7 7 Oeste 24 Oeste 0 -- -- 84
2021-01-02 22:00:00 1.9 12 Oeste 23 Sudoeste 0 -- -- 82
2021-01-02 21:00:00 2.1 12 Oeste 24 Oeste 0 -- -- 80
2021-01-02 20:00:00 2.4 13 Oeste 26 Oeste 0 -- -- 79
2021-01-02 19:00:00 2.3 12 Oeste 25 Oeste 0 -- -- 80
2021-01-02 18:00:00 2.5 13 Oeste 24 Oeste 0 -- -- 81
2021-01-02 17:00:00 2.7 10 Oeste 26 Oeste 0 -- -- 82
2021-01-02 16:00:00 2.7 13 Oeste 27 Oeste 0 -- -- 85
2021-01-02 15:00:00 2.3 15 Oeste 32 Oeste 0 -- -- 85
2021-01-02 14:00:00 2.3 13 Oeste 27 Noroeste 0.2 -- -- 89